createdAt,value
2018-07-11T00:02:03.084Z,7.63
2018-07-11T00:04:30.232Z,10.33
2018-07-11T00:06:57.368Z,8.53
2018-07-11T00:09:24.504Z,9.33
2018-07-11T00:11:51.644Z,10.63
2018-07-11T00:14:18.788Z,13.67
2018-07-11T00:17:17.973Z,8.53
2018-07-11T00:19:45.128Z,8.37
2018-07-11T00:22:12.280Z,9.70
2018-07-11T00:24:39.395Z,7.17
2018-07-11T00:27:06.800Z,11.20
2018-07-11T00:29:34.033Z,10.43
2018-07-11T00:32:01.216Z,10.73
2018-07-11T00:34:28.365Z,8.73
2018-07-11T00:36:55.512Z,7.80
2018-07-11T00:39:22.636Z,5.97
2018-07-11T00:41:49.788Z,8.67
2018-07-11T00:44:16.937Z,7.40
2018-07-11T00:46:44.092Z,10.73
2018-07-11T00:49:11.240Z,9.27
2018-07-11T00:51:38.420Z,9.00
2018-07-11T00:54:05.899Z,9.87
2018-07-11T00:56:33.068Z,7.53
2018-07-11T00:59:05.316Z,8.47
2018-07-11T01:01:33.119Z,10.93
2018-07-11T01:04:00.292Z,11.37
2018-07-11T01:06:27.441Z,12.10
2018-07-11T01:08:57.554Z,13.03
2018-07-11T01:11:24.984Z,8.07
2018-07-11T01:13:52.321Z,11.47
2018-07-11T01:16:19.528Z,8.43
2018-07-11T01:18:54.867Z,11.60
2018-07-11T01:21:22.004Z,17.30
2018-07-11T01:23:49.131Z,10.60
2018-07-11T01:26:16.680Z,7.67
2018-07-11T01:28:43.804Z,12.10
2018-07-11T01:31:10.932Z,12.87
2018-07-11T01:33:38.080Z,8.10
2018-07-11T01:36:05.199Z,9.73
2018-07-11T01:38:32.313Z,10.83
2018-07-11T01:40:59.497Z,12.97
2018-07-11T01:43:26.594Z,9.83
2018-07-11T01:45:53.720Z,9.30
2018-07-11T01:48:20.867Z,15.47
2018-07-11T01:50:47.992Z,12.33
2018-07-11T01:53:15.148Z,9.13
2018-07-11T01:55:42.297Z,11.77
2018-07-11T01:58:09.440Z,12.37
2018-07-11T02:00:36.579Z,15.03
2018-07-11T02:03:03.729Z,13.37
2018-07-11T02:05:30.891Z,14.57
2018-07-11T02:07:58.048Z,12.03
2018-07-11T02:10:25.267Z,11.90
2018-07-11T02:12:52.369Z,13.30
2018-07-11T02:15:19.536Z,14.07
2018-07-11T02:17:46.684Z,14.50
2018-07-11T02:20:16.504Z,13.33
2018-07-11T02:22:45.035Z,12.90
2018-07-11T02:25:12.982Z,11.90
2018-07-11T02:27:40.132Z,12.60
2018-07-11T02:30:10.810Z,15.10
2018-07-11T02:32:38.034Z,17.70
2018-07-11T02:35:05.188Z,12.03
2018-07-11T02:37:32.325Z,12.80
2018-07-11T02:39:59.452Z,15.80
2018-07-11T02:42:26.592Z,13.20
2018-07-11T02:44:53.744Z,13.47
2018-07-11T02:47:26.608Z,13.23
2018-07-11T02:49:53.764Z,11.13
2018-07-11T02:52:20.899Z,12.63
2018-07-11T02:54:48.024Z,14.30
2018-07-11T02:57:15.217Z,17.17
2018-07-11T02:59:42.456Z,14.50
2018-07-11T03:02:09.603Z,17.83
2018-07-11T03:04:37.079Z,13.93
2018-07-11T03:07:04.744Z,16.23
2018-07-11T03:09:31.859Z,15.93
2018-07-11T03:11:58.983Z,15.17
2018-07-11T03:14:26.144Z,17.07
2018-07-11T03:16:53.325Z,17.67
2018-07-11T03:19:20.452Z,13.47
2018-07-11T03:21:47.636Z,13.10
2018-07-11T03:24:15.933Z,14.73
2018-07-11T03:26:43.081Z,14.17
2018-07-11T03:29:10.343Z,15.50
2018-07-11T03:31:37.481Z,19.67
2018-07-11T03:34:04.627Z,18.50
2018-07-11T03:36:31.756Z,18.47
2018-07-11T03:38:58.900Z,18.50
2018-07-11T03:41:26.053Z,20.30
2018-07-11T03:43:53.196Z,20.90
2018-07-11T03:46:20.413Z,22.00
2018-07-11T03:48:47.597Z,16.37
2018-07-11T03:51:14.753Z,18.07
2018-07-11T03:53:41.930Z,19.90
2018-07-11T03:56:09.060Z,15.07
2018-07-11T03:58:36.179Z,21.37
2018-07-11T04:01:03.312Z,14.63
2018-07-11T04:03:30.472Z,21.67
2018-07-11T04:05:57.577Z,23.87
2018-07-11T04:08:24.704Z,18.60
2018-07-11T04:10:51.812Z,20.97
2018-07-11T04:13:19.283Z,24.67
2018-07-11T04:15:46.418Z,21.50
2018-07-11T04:18:17.820Z,33.50
2018-07-11T04:20:44.928Z,22.13
2018-07-11T04:23:12.045Z,25.17
2018-07-11T04:25:39.188Z,26.50
2018-07-11T04:28:06.341Z,20.07
2018-07-11T04:30:33.494Z,24.37
2018-07-11T04:33:00.665Z,26.43
2018-07-11T04:35:27.808Z,17.93
2018-07-11T04:37:55.005Z,20.40
2018-07-11T04:40:22.154Z,24.13
2018-07-11T04:42:49.312Z,18.17
2018-07-11T04:45:16.444Z,23.43
2018-07-11T04:47:43.609Z,23.00
2018-07-11T04:50:10.756Z,19.80
2018-07-11T04:52:37.987Z,31.20
2018-07-11T04:55:05.369Z,24.63
2018-07-11T04:57:32.543Z,22.77
2018-07-11T04:59:59.660Z,17.50
2018-07-11T05:02:26.789Z,16.77
2018-07-11T05:04:53.923Z,39.27
2018-07-11T05:07:21.041Z,21.43
2018-07-11T05:09:48.175Z,23.70
2018-07-11T05:12:15.292Z,20.07
2018-07-11T05:14:42.421Z,21.77
2018-07-11T05:17:09.540Z,21.57
2018-07-11T05:19:36.693Z,38.93
2018-07-11T05:22:03.833Z,17.37
2018-07-11T05:24:30.946Z,20.10
2018-07-11T05:26:58.119Z,31.43
2018-07-11T05:29:25.264Z,28.60
2018-07-11T05:31:52.447Z,58.67
2018-07-11T05:34:19.572Z,28.00
2018-07-11T05:36:46.682Z,18.43
2018-07-11T05:39:13.824Z,16.53
2018-07-11T05:41:40.952Z,33.63
2018-07-11T05:44:08.077Z,32.10
2018-07-11T05:46:35.208Z,16.93
2018-07-11T05:49:02.328Z,16.70
2018-07-11T05:51:29.444Z,20.73
2018-07-11T05:53:56.564Z,28.43
2018-07-11T05:56:23.744Z,28.03
2018-07-11T05:58:50.945Z,16.50
2018-07-11T06:01:18.101Z,19.47
2018-07-11T06:03:45.225Z,15.43
2018-07-11T06:06:12.353Z,66.00
2018-07-11T06:08:39.476Z,17.10
2018-07-11T06:11:15.686Z,26.77
2018-07-11T06:13:42.899Z,46.33
2018-07-11T06:16:09.948Z,17.83
2018-07-11T06:18:37.115Z,17.60
2018-07-11T06:21:04.252Z,20.60
2018-07-11T06:23:31.383Z,25.97
2018-07-11T06:25:58.531Z,15.87
2018-07-11T06:28:25.668Z,19.70
2018-07-11T06:30:52.809Z,19.27
2018-07-11T06:33:19.943Z,24.17
2018-07-11T06:35:47.116Z,17.73
2018-07-11T06:38:14.235Z,17.67
2018-07-11T06:40:41.364Z,17.57
2018-07-11T06:43:08.486Z,15.63
2018-07-11T06:45:35.625Z,28.37
2018-07-11T06:48:02.855Z,17.87
2018-07-11T06:50:29.892Z,17.47
2018-07-11T06:52:56.999Z,15.97
2018-07-11T06:55:24.192Z,16.97
2018-07-11T06:57:51.330Z,18.37
2018-07-11T07:00:18.444Z,33.73
2018-07-11T07:02:45.591Z,14.97
2018-07-11T07:05:12.704Z,15.57
2018-07-11T07:07:39.828Z,19.53
2018-07-11T07:10:06.969Z,15.00
2018-07-11T07:12:34.109Z,16.73
2018-07-11T07:15:01.264Z,17.17
2018-07-11T07:17:28.393Z,72.47
2018-07-11T07:19:55.510Z,43.03
2018-07-11T07:22:22.685Z,16.77
2018-07-11T07:24:49.780Z,13.10
2018-07-11T07:27:16.996Z,24.40
2018-07-11T07:29:44.147Z,15.67
2018-07-11T07:32:11.308Z,14.03
2018-07-11T07:34:38.460Z,15.83
2018-07-11T07:37:05.579Z,23.07
2018-07-11T07:39:32.710Z,213.30
2018-07-11T07:41:59.835Z,16.70
2018-07-11T07:44:26.993Z,79.97
2018-07-11T07:46:59.517Z,24.73
2018-07-11T07:49:27.047Z,13.53
2018-07-11T07:51:54.237Z,27.40
2018-07-11T07:54:21.409Z,70.37
2018-07-11T07:56:48.559Z,102.87
2018-07-11T07:59:15.726Z,14.67
2018-07-11T08:01:42.876Z,14.97
2018-07-11T08:04:10.750Z,91.90
2018-07-11T08:06:37.892Z,15.67
2018-07-11T08:09:05.114Z,10.13
2018-07-11T08:11:32.264Z,28.87
2018-07-11T08:13:59.392Z,47.83
2018-07-11T08:16:26.582Z,15.90
2018-07-11T08:18:53.739Z,23.20
2018-07-11T08:21:20.888Z,33.77
2018-07-11T08:23:59.600Z,149.70
2018-07-11T08:26:38.260Z,36.30
2018-07-11T08:30:22.375Z,57.07
2018-07-11T08:32:59.792Z,143.87
2018-07-11T08:36:40.568Z,22.27
2018-07-11T08:39:23.896Z,6.17
2018-07-11T08:42:01.088Z,16.40
2018-07-11T08:44:42.165Z,50.63
2018-07-11T08:47:17.832Z,71.03
2018-07-11T08:50:00.208Z,18.97
2018-07-11T08:54:39.580Z,84.17
2018-07-11T08:57:17.080Z,8.03
2018-07-11T09:02:02.108Z,32.73
2018-07-11T09:04:47.444Z,11.17
2018-07-11T09:07:28.620Z,52.47
2018-07-11T09:10:11.456Z,6.30
2018-07-11T09:15:54.824Z,57.20
2018-07-11T09:20:35.925Z,16.70
2018-07-11T09:23:14.544Z,81.90
2018-07-11T09:25:41.669Z,56.23
2018-07-11T09:28:08.832Z,27.73
2018-07-11T09:30:36.035Z,77.83
2018-07-11T09:33:03.157Z,8.10
2018-07-11T09:35:30.301Z,180.70
2018-07-11T09:37:57.458Z,11.80
2018-07-11T09:40:24.605Z,136.27
2018-07-11T09:42:51.804Z,58.87
2018-07-11T09:45:18.990Z,70.07
2018-07-11T09:47:46.157Z,53.20
2018-07-11T09:50:13.617Z,20.77
2018-07-11T09:52:40.756Z,394.00
2018-07-11T09:55:07.981Z,56.50
2018-07-11T09:57:36.785Z,174.47
2018-07-11T10:00:03.951Z,826.07
2018-07-11T10:02:31.125Z,201.87
2018-07-11T10:04:58.387Z,1999.90
2018-07-11T10:07:25.524Z,796.63
2018-07-11T10:09:52.753Z,1999.90
2018-07-11T10:12:19.892Z,421.57
2018-07-11T10:14:47.032Z,1999.90
2018-07-11T10:17:14.166Z,1985.30
2018-07-11T10:19:41.316Z,1268.10
2018-07-11T10:22:08.476Z,1811.57
2018-07-11T10:24:35.634Z,1999.90
2018-07-11T10:27:02.845Z,1999.90
2018-07-11T10:29:29.980Z,1999.90
2018-07-11T10:31:57.112Z,1999.90
2018-07-11T10:34:24.255Z,1999.90
2018-07-11T10:36:51.394Z,1999.90
2018-07-11T10:39:18.545Z,1999.90
2018-07-11T10:41:45.671Z,1999.90
2018-07-11T10:44:12.812Z,1999.90
2018-07-11T10:46:39.945Z,1999.90
2018-07-11T10:49:07.125Z,1999.90
2018-07-11T10:51:34.286Z,1999.90
2018-07-11T10:54:01.459Z,1999.90
2018-07-11T10:56:28.600Z,1999.90
2018-07-11T10:58:55.792Z,1999.90
2018-07-11T11:01:22.966Z,1999.90
2018-07-11T11:03:50.072Z,1999.90
2018-07-11T11:06:17.185Z,1999.90
2018-07-11T11:08:44.320Z,1999.90
2018-07-11T11:11:11.485Z,1999.90
2018-07-11T11:13:38.607Z,1999.90
2018-07-11T11:16:05.753Z,1999.90
2018-07-11T11:18:32.892Z,1999.90
2018-07-11T11:21:00.059Z,1999.90
2018-07-11T11:23:27.204Z,1999.90
2018-07-11T11:25:54.345Z,1999.90
2018-07-11T11:28:21.496Z,1999.90
2018-07-11T11:30:48.637Z,1999.90
2018-07-11T11:33:15.791Z,1999.90
2018-07-11T11:35:42.943Z,1999.90
2018-07-11T11:38:10.384Z,1999.90
2018-07-11T11:40:37.576Z,1999.90
2018-07-11T11:43:04.745Z,1999.90
2018-07-11T11:45:31.893Z,1999.90
2018-07-11T11:48:00.689Z,1999.90
2018-07-11T11:50:28.537Z,1999.90
2018-07-11T11:52:55.762Z,1999.90
2018-07-11T11:55:22.980Z,1999.90
2018-07-11T11:57:50.855Z,1999.90
2018-07-11T12:00:18.045Z,1999.90
2018-07-11T12:02:45.252Z,1999.90
2018-07-11T12:05:12.376Z,1999.90
2018-07-11T12:07:39.633Z,1999.90
2018-07-11T12:10:06.785Z,1999.90
2018-07-11T12:12:33.917Z,1999.90
2018-07-11T12:15:01.060Z,1999.90
2018-07-11T12:17:28.209Z,1999.90
2018-07-11T12:19:55.400Z,1999.90
2018-07-11T12:22:23.997Z,1636.77
2018-07-11T12:24:51.660Z,1999.90
2018-07-11T12:27:19.127Z,1999.90
2018-07-11T12:29:46.600Z,1999.90
2018-07-11T12:32:13.859Z,1999.90
2018-07-11T12:34:41.048Z,1999.90
2018-07-11T12:37:08.208Z,1999.90
2018-07-11T12:39:35.360Z,1999.90
2018-07-11T12:42:02.548Z,1999.90
2018-07-11T12:44:29.747Z,1999.90
2018-07-11T12:46:56.976Z,1999.90
2018-07-11T12:49:24.151Z,1999.90
2018-07-11T12:51:51.302Z,1999.90
2018-07-11T12:54:18.458Z,1999.90
2018-07-11T12:56:45.616Z,1999.90
2018-07-11T12:59:12.776Z,1999.90
2018-07-11T13:01:39.922Z,1999.90
2018-07-11T13:04:07.068Z,1999.90
2018-07-11T13:06:35.439Z,1999.90
2018-07-11T13:09:02.752Z,1999.90
2018-07-11T13:11:29.904Z,1999.90
2018-07-11T13:13:57.049Z,1999.90
2018-07-11T13:16:24.225Z,1999.90
2018-07-11T13:18:51.344Z,1999.90
2018-07-11T13:21:18.522Z,1999.90
2018-07-11T13:23:45.648Z,1999.90
2018-07-11T13:26:12.824Z,1999.90
2018-07-11T13:28:39.976Z,1999.90
2018-07-11T13:31:07.701Z,1999.90
2018-07-11T13:33:34.872Z,1999.90
2018-07-11T13:36:02.066Z,1999.90
2018-07-11T13:38:29.240Z,1999.90
2018-07-11T13:40:56.372Z,1999.90
2018-07-11T13:43:23.896Z,1999.90
2018-07-11T13:45:51.078Z,1999.90
2018-07-11T13:48:18.221Z,1999.90
2018-07-11T13:50:45.352Z,1999.90
2018-07-11T13:53:12.492Z,1999.90
2018-07-11T13:55:39.699Z,1999.90
2018-07-11T13:58:06.873Z,1999.90
2018-07-11T14:00:34.024Z,1999.90
2018-07-11T14:03:01.591Z,1999.90
2018-07-11T14:05:28.681Z,1999.90
2018-07-11T14:07:55.836Z,1999.90
2018-07-11T14:10:22.996Z,1999.90
2018-07-11T14:12:50.160Z,1999.90
2018-07-11T14:15:17.636Z,1999.90
2018-07-11T14:17:44.812Z,1999.90
2018-07-11T14:20:12.088Z,1999.90
2018-07-11T14:22:39.234Z,1999.90
2018-07-11T14:25:06.436Z,1999.90
2018-07-11T14:27:41.694Z,1999.90
2018-07-11T14:30:09.149Z,1999.90
2018-07-11T14:32:37.078Z,1999.90
2018-07-11T14:35:04.232Z,1999.90
2018-07-11T14:37:31.385Z,1999.90
2018-07-11T14:39:58.536Z,1999.90
2018-07-11T14:42:26.292Z,1999.90
2018-07-11T14:44:54.036Z,1999.90
2018-07-11T14:47:26.788Z,1999.90
2018-07-11T14:49:53.971Z,1999.90
2018-07-11T14:52:21.122Z,1999.90
2018-07-11T14:54:48.240Z,1999.90
2018-07-11T14:57:15.395Z,1908.23
2018-07-11T14:59:42.567Z,1999.90
2018-07-11T15:02:09.692Z,1999.90
2018-07-11T15:04:36.840Z,1999.90
2018-07-11T15:07:04.374Z,1999.90
2018-07-11T15:09:31.512Z,1999.90
2018-07-11T15:11:58.710Z,1999.90
2018-07-11T15:14:25.884Z,1999.90
2018-07-11T15:16:53.102Z,1999.90
2018-07-11T15:19:20.220Z,1999.90
2018-07-11T15:21:47.384Z,1999.90
2018-07-11T15:24:14.516Z,1999.90
2018-07-11T15:26:41.656Z,1999.90
2018-07-11T15:29:08.785Z,1999.90
2018-07-11T15:31:36.436Z,1999.90
2018-07-11T15:34:03.581Z,1999.90
2018-07-11T15:36:30.752Z,1999.90
2018-07-11T15:38:57.928Z,1999.90
2018-07-11T15:41:25.132Z,1999.90
2018-07-11T15:43:52.304Z,1999.90
2018-07-11T15:46:20.416Z,1999.90
2018-07-11T15:48:48.288Z,1999.90
2018-07-11T15:51:15.432Z,1999.90
2018-07-11T15:53:42.852Z,1241.43
2018-07-11T15:56:10.041Z,1999.90
2018-07-11T15:58:37.828Z,1999.90
2018-07-11T16:01:08.621Z,1999.90
2018-07-11T16:03:38.456Z,1999.90
2018-07-11T16:06:06.912Z,1999.90
2018-07-11T16:08:34.057Z,1999.90
2018-07-11T16:11:02.910Z,1999.90
2018-07-11T16:13:30.021Z,581.43
2018-07-11T16:15:57.185Z,1999.90
2018-07-11T16:18:24.339Z,1286.17
2018-07-11T16:20:51.577Z,511.33
2018-07-11T16:23:18.744Z,1999.90
2018-07-11T16:25:45.888Z,961.47
2018-07-11T16:28:13.532Z,1456.17
2018-07-11T16:30:40.686Z,533.27
2018-07-11T16:33:07.808Z,1999.90
2018-07-11T16:35:34.968Z,1298.80
2018-07-11T16:38:02.342Z,435.57
2018-07-11T16:40:30.364Z,1999.90
2018-07-11T16:42:57.559Z,1999.90
2018-07-11T16:45:25.204Z,1500.20
2018-07-11T16:47:52.348Z,1999.90
2018-07-11T16:50:20.188Z,1999.90
2018-07-11T16:52:47.400Z,1999.90
2018-07-11T16:55:14.556Z,1999.90
2018-07-11T16:57:52.500Z,1999.90
2018-07-11T17:00:29.112Z,382.50
2018-07-11T17:03:11.252Z,1999.90
2018-07-11T17:05:47.819Z,549.97
2018-07-11T17:08:16.513Z,1999.90
2018-07-11T17:10:43.668Z,1999.90
2018-07-11T17:13:13.449Z,1999.90
2018-07-11T17:15:44.696Z,776.83
2018-07-11T17:18:16.340Z,364.83
2018-07-11T17:20:43.484Z,1385.00
2018-07-11T17:23:10.623Z,669.23
2018-07-11T17:25:38.929Z,1999.90
2018-07-11T17:28:06.078Z,1999.90
2018-07-11T17:30:35.216Z,960.73
2018-07-11T17:33:03.744Z,1077.77
2018-07-11T17:35:30.925Z,516.63
2018-07-11T17:38:01.137Z,1999.90
2018-07-11T17:40:28.595Z,1999.90
2018-07-11T17:42:55.772Z,1999.90
2018-07-11T17:45:22.932Z,1999.90
2018-07-11T17:47:57.121Z,1999.90
2018-07-11T17:50:27.451Z,1999.90
2018-07-11T17:53:03.496Z,1999.90
2018-07-11T17:55:32.784Z,1999.90
2018-07-11T17:58:03.060Z,1999.90
2018-07-11T18:00:49.368Z,1999.90
2018-07-11T18:04:42.929Z,1999.90
2018-07-11T18:07:11.951Z,1999.90
2018-07-11T18:09:55.968Z,1999.90
2018-07-11T18:12:23.887Z,1999.90
2018-07-11T18:15:34.176Z,1999.90
2018-07-11T18:18:12.969Z,1999.90
2018-07-11T18:21:01.247Z,1999.90
2018-07-11T18:23:36.564Z,1999.90
2018-07-11T18:26:15.706Z,1999.90
2018-07-11T18:28:55.080Z,1999.90
2018-07-11T18:31:38.172Z,1999.90
2018-07-11T18:34:15.664Z,1999.90
2018-07-11T18:36:55.011Z,1999.90
2018-07-11T18:39:26.899Z,1999.90
2018-07-11T18:42:19.848Z,1999.90
2018-07-11T18:44:55.745Z,1999.90
2018-07-11T18:47:36.816Z,1999.90
2018-07-11T18:50:13.082Z,1999.90
2018-07-11T18:52:46.736Z,1999.90
2018-07-11T18:55:18.845Z,1903.80
2018-07-11T18:59:54.986Z,1999.90
2018-07-11T19:04:38.101Z,951.40
2018-07-11T19:07:13.991Z,153.43
2018-07-11T19:09:43.390Z,58.17
2018-07-11T19:12:19.868Z,70.87
2018-07-11T19:14:53.461Z,56.20
2018-07-11T19:17:30.121Z,53.23
2018-07-11T19:20:07.114Z,210.60
2018-07-11T19:22:42.164Z,48.23
2018-07-11T19:27:29.940Z,125.93
2018-07-11T19:30:03.935Z,163.50
2018-07-11T19:34:43.516Z,39.43
2018-07-11T19:39:26.288Z,21.70
2018-07-11T19:44:12.468Z,34.20
2018-07-11T19:47:19.841Z,36.60
2018-07-11T19:49:57.669Z,98.33
2018-07-11T19:52:47.376Z,21.53
2018-07-11T19:55:23.264Z,16.77
2018-07-11T19:57:50.461Z,14.13
2018-07-11T20:00:17.619Z,13.67
2018-07-11T20:02:44.748Z,53.37
2018-07-11T20:05:11.916Z,24.07
2018-07-11T20:07:39.041Z,14.10
2018-07-11T20:10:06.201Z,13.83
2018-07-11T20:12:33.366Z,21.67
2018-07-11T20:15:00.595Z,32.20
2018-07-11T20:17:27.732Z,12.90
2018-07-11T20:19:54.886Z,19.20
2018-07-11T20:22:22.060Z,16.60
2018-07-11T20:24:49.208Z,16.27
2018-07-11T20:27:16.424Z,53.03
2018-07-11T20:29:43.592Z,15.63
2018-07-11T20:32:10.748Z,22.13
2018-07-11T20:34:37.883Z,15.47
2018-07-11T20:37:05.125Z,21.47
2018-07-11T20:39:32.325Z,15.33
2018-07-11T20:41:59.468Z,19.53
2018-07-11T20:44:26.605Z,67.00
2018-07-11T20:46:53.779Z,27.83
2018-07-11T20:49:26.588Z,21.90
2018-07-11T20:51:53.712Z,20.57
2018-07-11T20:54:20.855Z,29.27
2018-07-11T20:56:47.976Z,22.10
2018-07-11T20:59:26.587Z,21.07
2018-07-11T21:02:07.828Z,16.80
2018-07-11T21:04:48.976Z,15.50
2018-07-11T21:07:42.533Z,17.90
2018-07-11T21:10:20.873Z,19.87
2018-07-11T21:14:03.031Z,21.37
2018-07-11T21:16:41.729Z,21.77
2018-07-11T21:19:10.069Z,11.97
2018-07-11T21:21:38.303Z,17.47
2018-07-11T21:24:06.585Z,15.73
2018-07-11T21:26:34.056Z,13.93
2018-07-11T21:29:01.214Z,19.90
2018-07-11T21:31:28.376Z,26.80
2018-07-11T21:33:55.520Z,16.70
2018-07-11T21:36:22.668Z,27.97
2018-07-11T21:38:50.099Z,19.03
2018-07-11T21:41:17.268Z,19.63
2018-07-11T21:43:44.432Z,31.67
2018-07-11T21:46:12.227Z,20.00
2018-07-11T21:48:39.400Z,31.27
2018-07-11T21:51:06.588Z,42.80
2018-07-11T21:53:33.733Z,62.40
2018-07-11T21:56:00.856Z,188.77
2018-07-11T21:58:28.173Z,16.57
2018-07-11T22:01:01.160Z,19.63
2018-07-11T22:03:28.308Z,25.00
2018-07-11T22:05:55.608Z,19.27
2018-07-11T22:08:22.755Z,16.17
2018-07-11T22:10:49.900Z,18.90
2018-07-11T22:13:17.018Z,19.57
2018-07-11T22:15:44.140Z,20.77
2018-07-11T22:18:22.943Z,69.03
2018-07-11T22:20:49.184Z,18.57
2018-07-11T22:23:15.435Z,17.90
2018-07-11T22:25:41.701Z,20.20
2018-07-11T22:28:07.945Z,19.17
2018-07-11T22:30:34.227Z,20.90
2018-07-11T22:33:00.488Z,17.80
2018-07-11T22:35:26.724Z,24.33
2018-07-11T22:37:52.971Z,18.20
2018-07-11T22:40:19.245Z,20.00
2018-07-11T22:42:45.525Z,33.43
2018-07-11T22:45:11.752Z,18.90
2018-07-11T22:47:38.005Z,18.37
2018-07-11T22:50:04.726Z,19.43
2018-07-11T22:52:31.835Z,17.23
2018-07-11T22:54:58.045Z,19.37
2018-07-11T22:57:24.301Z,21.00
2018-07-11T22:59:50.875Z,38.07
2018-07-11T23:02:17.520Z,18.00
2018-07-11T23:04:43.769Z,21.43
2018-07-11T23:07:10.016Z,19.37
2018-07-11T23:09:36.261Z,16.10
2018-07-11T23:12:03.701Z,19.10
2018-07-11T23:14:30.708Z,19.57
2018-07-11T23:16:56.980Z,20.40
2018-07-11T23:19:23.406Z,17.90
2018-07-11T23:21:49.704Z,20.40
2018-07-11T23:24:15.958Z,17.67
2018-07-11T23:26:42.213Z,20.67
2018-07-11T23:29:08.460Z,19.43
2018-07-11T23:31:34.708Z,22.13
2018-07-11T23:34:00.957Z,24.53
2018-07-11T23:36:27.200Z,22.43
2018-07-11T23:38:53.452Z,23.70
2018-07-11T23:41:19.733Z,17.10
2018-07-11T23:43:46.000Z,19.33
2018-07-11T23:46:12.348Z,22.00
2018-07-11T23:48:38.659Z,19.60
2018-07-11T23:51:04.937Z,89.10
2018-07-11T23:53:31.204Z,22.30
2018-07-11T23:55:57.537Z,21.73
2018-07-11T23:58:23.812Z,26.80
